createdAt,value
2018-02-03T12:17:26.220Z,5.55
2018-02-03T12:18:26.273Z,5.61
2018-02-03T12:19:26.025Z,5.59
2018-02-03T12:20:26.034Z,5.51
2018-02-03T12:21:26.225Z,5.51
2018-02-03T12:22:26.045Z,5.59
2018-02-03T12:23:26.242Z,5.6
2018-02-03T12:24:26.121Z,5.59
2018-02-03T12:25:26.270Z,5.49
2018-02-03T12:26:26.281Z,5.53
2018-02-03T12:27:26.390Z,5.51
2018-02-03T12:28:26.304Z,5.49
2018-02-03T12:29:26.463Z,5.49
2018-02-03T12:30:26.283Z,5.48
2018-02-03T12:31:26.054Z,5.43
2018-02-03T12:32:26.268Z,5.45
2018-02-03T12:33:26.432Z,5.45
2018-02-03T12:34:26.638Z,5.45
2018-02-03T12:35:26.367Z,5.44
2018-02-03T12:36:26.061Z,5.42
2018-02-03T12:37:26.056Z,5.46
2018-02-03T12:38:26.334Z,5.4
2018-02-03T12:39:26.087Z,5.35
2018-02-03T12:40:26.118Z,5.39
2018-02-03T12:41:26.137Z,5.4
2018-02-03T12:42:26.208Z,5.42
2018-02-03T12:43:26.043Z,5.44
2018-02-03T12:44:26.207Z,5.48
2018-02-03T12:45:26.049Z,5.47
2018-02-03T12:46:26.137Z,5.48
2018-02-03T12:47:26.142Z,5.47
2018-02-03T12:48:26.143Z,5.48
2018-02-03T12:49:26.097Z,5.34
2018-02-03T12:50:26.116Z,5.36
2018-02-03T12:51:26.131Z,5.29
2018-02-03T12:52:26.178Z,5.27
2018-02-03T12:53:26.023Z,5.34
2018-02-03T12:54:26.084Z,5.36
2018-02-03T12:55:26.202Z,5.38
2018-02-03T12:56:26.193Z,5.36
2018-02-03T12:57:26.106Z,5.37
2018-02-03T12:58:26.197Z,5.33
2018-02-03T12:59:26.172Z,5.4
2018-02-03T13:00:26.093Z,5.38
2018-02-03T13:01:26.081Z,5.4
2018-02-03T13:02:26.041Z,5.45
2018-02-03T13:03:26.175Z,5.41
2018-02-03T13:04:26.078Z,5.44
2018-02-03T13:05:26.171Z,5.49
2018-02-03T13:06:26.119Z,5.44
2018-02-03T13:07:26.072Z,5.49
2018-02-03T13:08:26.025Z,5.46
2018-02-03T13:09:25.968Z,5.47
2018-02-03T13:10:25.996Z,5.46
2018-02-03T13:11:26.130Z,5.4
2018-02-03T13:12:25.962Z,5.34
2018-02-03T13:13:26.148Z,5.34
2018-02-03T13:14:26.202Z,5.39
2018-02-03T13:15:26.124Z,5.43
2018-02-03T13:16:26.976Z,5.41
2018-02-03T13:17:26.569Z,5.38
2018-02-03T13:18:26.025Z,5.43
2018-02-03T13:19:25.918Z,5.46
2018-02-03T13:20:25.854Z,5.47
2018-02-03T13:21:25.976Z,5.45
2018-02-03T13:22:26.022Z,5.46
2018-02-03T13:23:26.193Z,5.45
2018-02-03T13:24:26.019Z,5.44
2018-02-03T13:25:26.021Z,5.35
2018-02-03T13:26:26.232Z,5.33
2018-02-03T13:27:26.134Z,5.39
2018-02-03T13:28:26.371Z,5.4
2018-02-03T13:29:26.124Z,5.44
2018-02-03T13:30:26.038Z,5.42
2018-02-03T13:31:25.819Z,5.41
2018-02-03T13:32:26.058Z,5.39
2018-02-03T13:33:26.497Z,5.41
2018-02-03T13:34:26.350Z,5.38
2018-02-03T13:35:25.889Z,5.41
2018-02-03T13:36:26.184Z,5.42
2018-02-03T13:37:26.895Z,5.41
2018-02-03T13:38:25.990Z,5.46
2018-02-03T13:39:25.990Z,5.47
2018-02-03T13:40:25.939Z,5.43
2018-02-03T13:41:25.901Z,5.45
2018-02-03T13:42:25.963Z,5.42
2018-02-03T13:43:25.983Z,5.36
2018-02-03T13:44:26.025Z,5.38
2018-02-03T13:45:26.074Z,5.36
2018-02-03T13:46:25.886Z,5.37
2018-02-03T13:47:25.868Z,5.37
2018-02-03T13:48:26.102Z,5.36
2018-02-03T13:49:26.151Z,5.37
2018-02-03T13:50:26.093Z,5.35
2018-02-03T13:51:26.086Z,5.39
2018-02-03T13:52:26.005Z,5.24
2018-02-03T13:53:27.381Z,5.32
2018-02-03T13:54:26.236Z,5.36
2018-02-03T13:55:25.992Z,5.3
2018-02-03T13:56:26.194Z,5.27
2018-02-03T13:57:26.000Z,5.28
2018-02-03T13:58:26.242Z,5.32
2018-02-03T13:59:26.025Z,5.3
2018-02-03T14:00:26.091Z,5.33
2018-02-03T14:01:26.013Z,5.36
2018-02-03T14:02:26.147Z,5.38
2018-02-03T14:03:26.210Z,5.4
2018-02-03T14:04:26.036Z,5.36
2018-02-03T14:05:26.054Z,5.38
2018-02-03T14:06:26.356Z,5.37
2018-02-03T14:07:26.145Z,5.35
2018-02-03T14:08:26.147Z,5.36
2018-02-03T14:09:25.958Z,5.3
2018-02-03T14:10:26.178Z,5.34
2018-02-03T14:11:26.036Z,5.32
2018-02-03T14:12:26.039Z,5.39
2018-02-03T14:13:26.017Z,5.38
2018-02-03T14:14:26.109Z,5.4
2018-02-03T14:15:26.060Z,5.42
2018-02-03T14:16:26.090Z,5.45
2018-02-03T14:17:26.073Z,5.43
2018-02-03T14:18:26.202Z,5.46
2018-02-03T14:19:26.102Z,5.37
2018-02-03T14:20:26.252Z,5.41
2018-02-03T14:21:26.231Z,5.43
2018-02-03T14:22:26.268Z,5.44
2018-02-03T14:23:26.215Z,5.41
2018-02-03T14:24:26.147Z,5.41
2018-02-03T14:25:26.144Z,5.4
2018-02-03T14:26:26.308Z,5.41
2018-02-03T14:27:26.165Z,5.44
2018-02-03T14:28:26.251Z,5.44
2018-02-03T14:29:26.214Z,5.43
2018-02-03T14:30:26.376Z,5.44
2018-02-03T14:31:26.183Z,5.45
2018-02-03T14:32:26.140Z,5.46
2018-02-03T14:33:28.902Z,5.46
2018-02-03T14:34:26.122Z,5.45
2018-02-03T14:35:26.355Z,5.44
2018-02-03T14:36:26.363Z,5.45
2018-02-03T14:37:26.121Z,5.46
2018-02-03T14:38:26.273Z,5.45
2018-02-03T14:39:26.318Z,5.46
2018-02-03T14:40:26.106Z,5.46
2018-02-03T14:41:26.154Z,5.47
2018-02-03T14:42:26.304Z,5.47
2018-02-03T14:43:26.356Z,5.47
2018-02-03T14:44:26.281Z,5.47
2018-02-03T14:45:26.359Z,5.46
2018-02-03T14:46:26.163Z,5.46
2018-02-03T14:47:26.061Z,5.47
2018-02-03T14:48:26.244Z,5.48
2018-02-03T14:49:26.330Z,5.49
2018-02-03T14:50:26.185Z,5.49
2018-02-03T14:51:26.171Z,5.5
2018-02-03T14:52:26.308Z,5.5
2018-02-03T14:53:26.344Z,5.49
2018-02-03T14:54:26.124Z,5.48
2018-02-03T14:55:26.262Z,5.51
2018-02-03T14:56:26.342Z,5.51
2018-02-03T14:57:26.146Z,5.5
2018-02-03T14:58:26.128Z,5.55
2018-02-03T14:59:26.191Z,5.45
2018-02-03T15:00:26.705Z,5.48
2018-02-03T15:01:26.142Z,5.37
2018-02-03T15:02:26.226Z,5.37
2018-02-03T15:03:26.223Z,5.28
2018-02-03T15:04:26.301Z,5.22
2018-02-03T15:05:26.132Z,5.27
2018-02-03T15:06:26.280Z,5.19
2018-02-03T15:07:26.461Z,5.27
2018-02-03T15:08:26.178Z,5.26
2018-02-03T15:09:26.306Z,5.23
2018-02-03T15:10:26.272Z,5.26
2018-02-03T15:11:26.346Z,5.19
2018-02-03T15:12:26.125Z,5.14
2018-02-03T15:13:26.176Z,5.2
2018-02-03T15:14:26.156Z,5.18
2018-02-03T15:15:26.439Z,5.21
2018-02-03T15:16:26.366Z,5.19
2018-02-03T15:17:26.171Z,5.17
2018-02-03T15:18:26.346Z,5.2
2018-02-03T15:19:25.378Z,5.19
2018-02-03T15:20:25.566Z,5.2
2018-02-03T15:21:25.409Z,5.19
2018-02-03T15:22:25.472Z,5.24
2018-02-03T15:23:25.675Z,5.24
2018-02-03T15:24:25.505Z,5.24
2018-02-03T15:25:25.442Z,5.23
2018-02-03T15:26:25.568Z,5.25
2018-02-03T15:27:25.474Z,5.26
2018-02-03T15:28:25.560Z,5.25
2018-02-03T15:29:25.376Z,5.25
2018-02-03T15:30:25.504Z,5.24
2018-02-03T15:31:25.350Z,5.26
2018-02-03T15:32:25.786Z,5.32
2018-02-03T15:33:25.580Z,5.32
2018-02-03T15:34:25.461Z,5.34
2018-02-03T15:35:25.593Z,5.33
2018-02-03T15:36:25.611Z,5.35
2018-02-03T15:37:25.476Z,5.32
2018-02-03T15:38:25.353Z,5.31
2018-02-03T15:39:25.541Z,5.34
2018-02-03T15:40:25.585Z,5.34
2018-02-03T15:41:25.462Z,5.34
2018-02-03T15:42:25.480Z,5.37
2018-02-03T15:43:25.568Z,5.36
2018-02-03T15:44:25.536Z,5.37
2018-02-03T15:45:25.728Z,5.34
2018-02-03T15:46:25.495Z,5.35
2018-02-03T15:47:25.647Z,5.34
2018-02-03T15:48:25.579Z,5.37
2018-02-03T15:49:25.656Z,5.36
2018-02-03T15:50:25.759Z,5.34
2018-02-03T15:51:25.892Z,5.34
2018-02-03T15:52:25.837Z,5.36
2018-02-03T15:53:25.730Z,5.36
2018-02-03T15:54:25.832Z,5.37
2018-02-03T15:55:25.685Z,5.36
2018-02-03T15:56:25.678Z,5.33
2018-02-03T15:57:25.805Z,5.33
2018-02-03T15:58:25.809Z,5.37
2018-02-03T15:59:25.860Z,5.37
2018-02-03T16:00:25.796Z,5.37
2018-02-03T16:01:25.770Z,5.36
2018-02-03T16:02:25.779Z,5.34
2018-02-03T16:03:25.668Z,5.3
2018-02-03T16:04:25.669Z,5.29
2018-02-03T16:05:25.699Z,5.29
2018-02-03T16:06:25.728Z,5.3
2018-02-03T16:07:26.098Z,5.31
2018-02-03T16:10:46.940Z,5.34
2018-02-03T16:11:25.971Z,5.34
2018-02-03T16:12:25.679Z,5.33
2018-02-03T16:13:25.817Z,5.33
2018-02-03T16:14:25.600Z,5.33
2018-02-03T16:16:25.578Z,5.35
2018-02-03T16:17:25.596Z,5.36
2018-02-03T16:18:25.842Z,5.37
2018-02-03T16:19:25.681Z,5.37
2018-02-03T16:20:25.822Z,5.38
2018-02-03T16:21:25.861Z,5.49
2018-02-03T16:22:25.752Z,5.44
2018-02-03T16:23:25.911Z,5.41
2018-02-03T16:24:25.798Z,5.37
2018-02-03T16:25:25.767Z,5.37
2018-02-03T16:26:25.748Z,5.36
2018-02-03T16:27:25.848Z,5.45
2018-02-03T16:28:25.943Z,5.4
2018-02-03T16:29:25.865Z,5.36
2018-02-03T16:30:25.686Z,5.34
2018-02-03T16:31:25.764Z,5.34
2018-02-03T16:32:25.908Z,5.35
2018-02-03T16:33:25.863Z,5.41
2018-02-03T16:34:26.033Z,5.41
2018-02-03T16:35:25.802Z,5.37
2018-02-03T16:36:25.816Z,5.38
2018-02-03T16:37:26.033Z,5.37
2018-02-03T16:38:25.821Z,5.45
2018-02-03T16:39:25.927Z,5.43
2018-02-03T16:40:25.900Z,5.41
2018-02-03T16:41:26.049Z,5.38
2018-02-03T16:42:25.910Z,5.39
2018-02-03T16:43:25.993Z,5.37
2018-02-03T16:44:25.918Z,5.45
2018-02-03T16:45:25.938Z,5.47
2018-02-03T16:46:25.952Z,5.43
2018-02-03T16:47:25.982Z,5.43
2018-02-03T16:48:25.877Z,5.55
2018-02-03T16:49:25.798Z,5.5
2018-02-03T16:50:25.936Z,5.49
2018-02-03T16:51:25.913Z,5.44
2018-02-03T16:52:26.044Z,5.43
2018-02-03T16:53:25.990Z,5.45
2018-02-03T16:54:26.378Z,5.51
2018-02-03T16:55:26.234Z,5.56
2018-02-03T16:56:25.977Z,5.47
2018-02-03T16:57:25.980Z,5.44
2018-02-03T16:58:25.917Z,5.51
2018-02-03T16:59:25.900Z,5.48
2018-02-03T17:00:25.956Z,5.56
2018-02-03T17:01:25.838Z,5.49
2018-02-03T17:02:26.032Z,5.47
2018-02-03T17:03:26.130Z,5.49
2018-02-03T17:04:25.975Z,5.5
2018-02-03T17:05:25.891Z,5.44
2018-02-03T17:06:26.007Z,5.46
2018-02-03T17:07:26.200Z,5.45
2018-02-03T17:08:25.992Z,5.41
2018-02-03T17:09:25.986Z,5.42
2018-02-03T17:10:25.964Z,5.41
2018-02-03T17:11:25.894Z,5.42
2018-02-03T17:12:25.761Z,5.47
2018-02-03T17:13:25.808Z,5.4
2018-02-03T17:14:25.972Z,5.39
2018-02-03T17:15:25.939Z,5.38
2018-02-03T17:16:25.780Z,5.4
2018-02-03T17:17:25.968Z,5.4
2018-02-03T17:18:25.804Z,5.38
2018-02-03T17:19:25.900Z,5.39
2018-02-03T17:20:26.004Z,5.39
2018-02-03T17:21:26.259Z,5.4
2018-02-03T17:22:26.063Z,5.41
2018-02-03T17:23:26.186Z,5.46
2018-02-03T17:24:26.192Z,5.5
2018-02-03T17:25:26.056Z,5.47
2018-02-03T17:26:26.089Z,5.46
2018-02-03T17:27:26.485Z,5.41
2018-02-03T17:28:26.818Z,5.44
2018-02-03T17:29:26.300Z,5.4
2018-02-03T17:30:26.191Z,5.41
2018-02-03T17:31:26.048Z,5.43
2018-02-03T17:32:26.358Z,5.41
2018-02-03T17:33:26.354Z,5.42
2018-02-03T17:34:26.962Z,5.45
2018-02-03T17:35:26.187Z,5.42
2018-02-03T17:36:26.091Z,5.45
2018-02-03T17:37:26.343Z,5.44
2018-02-03T17:38:26.252Z,5.42
2018-02-03T17:39:26.320Z,5.43
2018-02-03T17:40:26.209Z,5.43
2018-02-03T17:41:26.168Z,5.45
2018-02-03T17:42:26.396Z,5.47
2018-02-03T17:43:26.070Z,5.45
2018-02-03T17:44:26.315Z,5.5
2018-02-03T17:45:26.799Z,5.49
2018-02-03T17:46:26.364Z,5.5
2018-02-03T17:47:26.246Z,5.5
2018-02-03T17:48:26.447Z,5.47
2018-02-03T17:49:26.099Z,5.44
2018-02-03T17:50:26.906Z,5.42
2018-02-03T17:51:26.181Z,5.42
2018-02-03T17:52:26.326Z,5.43
2018-02-03T17:53:26.036Z,5.45
2018-02-03T17:54:26.124Z,5.42
2018-02-03T17:55:26.194Z,5.39
2018-02-03T17:56:26.207Z,5.39
2018-02-03T17:57:26.111Z,5.37
2018-02-03T17:58:26.185Z,5.36
2018-02-03T17:59:26.101Z,5.37
2018-02-03T18:00:26.027Z,5.37
2018-02-03T18:01:26.080Z,5.38
2018-02-03T18:02:26.302Z,5.37
2018-02-03T18:03:26.188Z,5.37
2018-02-03T18:04:26.774Z,5.35
2018-02-03T18:05:26.096Z,5.35
2018-02-03T18:06:26.125Z,5.39
2018-02-03T18:07:26.139Z,5.4
2018-02-03T18:08:26.269Z,5.38
2018-02-03T18:09:26.110Z,5.39
2018-02-03T18:10:25.975Z,5.35
2018-02-03T18:11:26.145Z,5.37
2018-02-03T18:12:26.319Z,5.38
2018-02-03T18:13:26.059Z,5.4
2018-02-03T18:14:26.047Z,5.42
2018-02-03T18:15:26.087Z,5.41
2018-02-03T18:16:26.206Z,5.38
2018-02-03T18:17:25.960Z,5.4
2018-02-03T18:18:26.273Z,5.39
2018-02-03T18:19:26.044Z,5.36
2018-02-03T18:20:26.128Z,5.36
2018-02-03T18:21:26.008Z,5.36
2018-02-03T18:22:26.187Z,5.38
2018-02-03T18:23:26.352Z,5.34
2018-02-03T18:24:26.236Z,5.33
2018-02-03T18:25:26.530Z,5.35
2018-02-03T18:26:26.305Z,5.33
2018-02-03T18:27:26.102Z,5.33
2018-02-03T18:28:26.280Z,5.37
2018-02-03T18:29:26.547Z,5.36
2018-02-03T18:30:26.328Z,5.33
2018-02-03T18:31:26.774Z,5.33
2018-02-03T18:32:26.257Z,5.34
2018-02-03T18:33:26.274Z,5.35
2018-02-03T18:34:26.330Z,5.33
2018-02-03T18:35:26.185Z,5.33
2018-02-03T18:36:26.370Z,5.33
2018-02-03T18:37:26.133Z,5.32
2018-02-03T18:38:26.198Z,5.32
2018-02-03T18:39:26.365Z,5.31
2018-02-03T18:40:26.344Z,5.31
2018-02-03T18:41:26.344Z,5.33
2018-02-03T18:42:26.362Z,5.32
2018-02-03T18:43:26.264Z,5.33
2018-02-03T18:44:26.321Z,5.32
2018-02-03T18:45:26.293Z,5.32
2018-02-03T18:46:26.258Z,5.31
2018-02-03T18:47:26.145Z,5.33
2018-02-03T18:48:30.603Z,5.31
2018-02-03T18:49:27.413Z,5.32
2018-02-03T18:50:26.220Z,5.33
2018-02-03T18:51:31.469Z,5.34
2018-02-03T18:52:25.339Z,5.32
2018-02-03T18:53:25.438Z,5.33
2018-02-03T18:54:25.304Z,5.3
2018-02-03T18:55:25.327Z,5.31
2018-02-03T18:56:25.370Z,5.32
2018-02-03T18:57:25.500Z,5.31
2018-02-03T18:58:25.516Z,5.31
2018-02-03T18:59:25.533Z,5.32
2018-02-03T19:00:25.411Z,5.36
2018-02-03T19:01:25.495Z,5.33
2018-02-03T19:02:25.441Z,5.34
2018-02-03T19:03:25.410Z,5.34
2018-02-03T19:04:25.448Z,5.34
2018-02-03T19:05:25.484Z,5.37
2018-02-03T19:06:25.504Z,5.4
2018-02-03T19:07:25.425Z,5.36
2018-02-03T19:08:25.571Z,5.33
2018-02-03T19:09:25.334Z,5.33
2018-02-03T19:10:25.500Z,5.29
2018-02-03T19:11:25.348Z,5.3
2018-02-03T19:12:25.455Z,5.32
2018-02-03T19:13:25.476Z,5.32
2018-02-03T19:14:25.497Z,5.32
2018-02-03T19:15:25.564Z,5.32
2018-02-03T19:16:25.967Z,5.33
2018-02-03T19:17:25.497Z,5.33
2018-02-03T19:18:25.370Z,5.32
2018-02-03T19:19:25.410Z,5.3
2018-02-03T19:20:25.473Z,5.32
2018-02-03T19:21:25.535Z,5.31
2018-02-03T19:22:25.732Z,5.34
2018-02-03T19:23:25.994Z,5.32
2018-02-03T19:24:25.831Z,5.32
2018-02-03T19:25:26.117Z,5.33
2018-02-03T19:26:25.936Z,5.33
2018-02-03T19:27:25.929Z,5.32
2018-02-03T19:28:26.118Z,5.32
2018-02-03T19:29:25.842Z,5.32
2018-02-03T19:30:25.898Z,5.32
2018-02-03T19:31:25.732Z,5.32
2018-02-03T19:32:25.725Z,5.33
2018-02-03T19:33:25.971Z,5.33
2018-02-03T19:34:25.896Z,5.34
2018-02-03T19:35:25.956Z,5.32
2018-02-03T19:36:25.864Z,5.33
2018-02-03T19:37:25.870Z,5.32
2018-02-03T19:38:26.125Z,5.32
2018-02-03T19:39:25.935Z,5.31
2018-02-03T19:40:25.891Z,5.31
2018-02-03T19:41:26.470Z,5.32
2018-02-03T19:42:26.377Z,5.32
2018-02-03T19:43:25.961Z,5.31
2018-02-03T19:44:25.970Z,5.32
2018-02-03T19:45:25.919Z,5.32
2018-02-03T19:46:25.796Z,5.33
2018-02-03T19:47:25.878Z,5.32
2018-02-03T19:48:26.016Z,5.31
2018-02-03T19:49:25.852Z,5.32
2018-02-03T19:50:26.027Z,5.31
2018-02-03T19:51:26.096Z,5.32
2018-02-03T19:52:25.912Z,5.31
2018-02-03T19:53:25.929Z,5.31
2018-02-03T19:54:25.837Z,5.33
2018-02-03T19:55:26.146Z,5.32
2018-02-03T19:56:26.017Z,5.32
2018-02-03T19:57:25.947Z,5.33
2018-02-03T19:58:25.951Z,5.34
2018-02-03T19:59:25.907Z,5.37
2018-02-03T20:00:25.828Z,5.39
2018-02-03T20:01:25.818Z,5.35
2018-02-03T20:02:25.967Z,5.37
2018-02-03T20:03:25.810Z,5.35
2018-02-03T20:04:26.073Z,5.33
2018-02-03T20:05:26.028Z,5.33
2018-02-03T20:06:26.007Z,5.32
2018-02-03T20:07:26.159Z,5.34
2018-02-03T20:08:26.267Z,5.33
2018-02-03T20:09:25.910Z,5.33
2018-02-03T20:10:25.921Z,5.32
2018-02-03T20:11:25.991Z,5.33
2018-02-03T20:12:26.225Z,5.31
2018-02-03T20:13:26.017Z,5.31
2018-02-03T20:14:26.151Z,5.32
2018-02-03T20:15:26.146Z,5.31
2018-02-03T20:16:25.957Z,5.32
2018-02-03T20:17:25.863Z,5.31
2018-02-03T20:18:25.965Z,5.31
2018-02-03T20:19:25.971Z,5.31
2018-02-03T20:20:25.837Z,5.32
2018-02-03T20:21:26.092Z,5.32
2018-02-03T20:22:25.851Z,5.31
2018-02-03T20:23:26.941Z,5.31
2018-02-03T20:24:26.858Z,5.31
2018-02-03T20:25:25.911Z,5.3
2018-02-03T20:26:26.073Z,5.29
2018-02-03T20:27:25.957Z,5.32
2018-02-03T20:28:25.863Z,5.3
2018-02-03T20:29:26.205Z,5.31
2018-02-03T20:30:26.113Z,5.31
2018-02-03T20:31:26.095Z,5.34
2018-02-03T20:32:26.094Z,5.33
2018-02-03T20:33:26.069Z,5.32
2018-02-03T20:34:26.134Z,5.32
2018-02-03T20:35:25.966Z,5.32
2018-02-03T20:36:25.990Z,5.32
2018-02-03T20:37:26.097Z,5.32
2018-02-03T20:38:26.005Z,5.33
2018-02-03T20:39:25.891Z,5.33
2018-02-03T20:40:26.117Z,5.33
2018-02-03T20:41:25.872Z,5.33
2018-02-03T20:42:25.960Z,5.36
2018-02-03T20:43:26.095Z,5.36
2018-02-03T20:44:25.876Z,5.36
2018-02-03T20:45:25.760Z,5.35
2018-02-03T20:46:25.891Z,5.33
2018-02-03T20:47:26.085Z,5.35
2018-02-03T20:48:25.903Z,5.38
2018-02-03T20:49:25.919Z,5.37
2018-02-03T20:50:25.967Z,5.37
2018-02-03T20:51:25.978Z,5.37
2018-02-03T20:52:25.962Z,5.37
2018-02-03T20:53:25.903Z,5.38
2018-02-03T20:54:25.932Z,5.36
2018-02-03T20:55:25.875Z,5.37
2018-02-03T20:56:25.883Z,5.36
2018-02-03T20:57:25.981Z,5.38
2018-02-03T20:58:25.920Z,5.37
2018-02-03T20:59:25.946Z,5.37
2018-02-03T21:00:26.067Z,5.39
2018-02-03T21:01:25.891Z,5.39
2018-02-03T21:02:25.861Z,5.39
2018-02-03T21:03:25.985Z,5.39
2018-02-03T21:04:26.044Z,5.38
2018-02-03T21:05:26.053Z,5.38
2018-02-03T21:06:25.967Z,5.39
2018-02-03T21:07:25.972Z,5.4
2018-02-03T21:08:25.830Z,5.38
2018-02-03T21:09:25.889Z,5.39
2018-02-03T21:10:25.973Z,5.41
2018-02-03T21:11:25.858Z,5.44
2018-02-03T21:12:25.933Z,5.43
2018-02-03T21:13:26.732Z,5.43
2018-02-03T21:14:26.186Z,5.46
2018-02-03T21:15:25.915Z,5.43
2018-02-03T21:16:26.088Z,5.43
2018-02-03T21:17:25.979Z,5.41
2018-02-03T21:18:26.092Z,5.41
2018-02-03T21:19:26.060Z,5.42
2018-02-03T21:20:25.967Z,5.4
2018-02-03T21:21:25.890Z,5.39
2018-02-03T21:22:26.112Z,5.39
2018-02-03T21:23:26.034Z,5.39
2018-02-03T21:24:25.982Z,5.39
2018-02-03T21:25:25.845Z,5.4
2018-02-03T21:26:25.744Z,5.41
2018-02-03T21:27:25.868Z,5.39
2018-02-03T21:28:25.694Z,5.37
2018-02-03T21:29:25.740Z,5.37
2018-02-03T21:30:25.784Z,5.37
2018-02-03T21:31:25.936Z,5.38
2018-02-03T21:32:25.641Z,5.36
2018-02-03T21:33:25.898Z,5.39
2018-02-03T21:34:25.809Z,5.39
2018-02-03T21:35:26.859Z,5.39
2018-02-03T21:36:25.876Z,5.37
2018-02-03T21:37:25.740Z,5.37
2018-02-03T21:38:25.716Z,5.37
2018-02-03T21:39:25.892Z,5.38
2018-02-03T21:40:25.816Z,5.4
2018-02-03T21:41:25.773Z,5.38
2018-02-03T21:42:25.817Z,5.39
2018-02-03T21:43:25.694Z,5.4
2018-02-03T21:44:25.875Z,5.39
2018-02-03T21:45:25.876Z,5.36
2018-02-03T21:46:25.882Z,5.37
2018-02-03T21:47:25.947Z,5.37
2018-02-03T21:48:25.865Z,5.37
2018-02-03T21:49:25.721Z,5.37
2018-02-03T21:50:26.758Z,5.38
2018-02-03T21:51:26.792Z,5.37
2018-02-03T21:52:25.895Z,5.37
2018-02-03T21:53:26.063Z,5.37
2018-02-03T21:54:25.770Z,5.36
2018-02-03T21:55:27.131Z,5.35
2018-02-03T21:56:26.395Z,5.34
2018-02-03T21:57:25.505Z,5.34
2018-02-03T21:58:25.336Z,5.34
2018-02-03T21:59:25.547Z,5.34
2018-02-03T22:00:25.568Z,5.35
2018-02-03T22:01:25.514Z,5.36
2018-02-03T22:02:25.545Z,5.36
2018-02-03T22:03:25.540Z,5.37
2018-02-03T22:04:25.480Z,5.37
2018-02-03T22:05:25.354Z,5.37
2018-02-03T22:06:25.492Z,5.36
2018-02-03T22:07:25.582Z,5.37
2018-02-03T22:08:25.357Z,5.37
2018-02-03T22:09:25.427Z,5.37
2018-02-03T22:10:26.180Z,5.37
2018-02-03T22:11:25.548Z,5.35
2018-02-03T22:12:27.653Z,5.35
2018-02-03T22:13:28.121Z,5.35
2018-02-03T22:14:25.458Z,5.36
2018-02-03T22:15:25.578Z,5.37
2018-02-03T22:16:25.403Z,5.37
2018-02-03T22:17:25.526Z,5.38
2018-02-03T22:18:25.457Z,5.38
2018-02-03T22:19:25.461Z,5.38
2018-02-03T22:20:25.327Z,5.37
2018-02-03T22:21:25.681Z,5.37
2018-02-03T22:22:25.513Z,5.37
2018-02-03T22:23:25.641Z,5.37
2018-02-03T22:24:26.348Z,5.37
2018-02-03T22:25:26.676Z,5.38
2018-02-03T22:26:25.900Z,5.35
2018-02-03T22:27:26.998Z,5.35
2018-02-03T22:28:25.969Z,5.33
2018-02-03T22:29:26.183Z,5.33
2018-02-03T22:30:25.838Z,5.33
2018-02-03T22:31:25.944Z,5.34
2018-02-03T22:32:25.909Z,5.35
2018-02-03T22:33:25.830Z,5.32
2018-02-03T22:34:25.854Z,5.31
2018-02-03T22:35:25.944Z,5.34
2018-02-03T22:36:34.086Z,5.33
2018-02-03T22:37:28.009Z,5.33
2018-02-03T22:38:27.796Z,5.35
2018-02-03T22:39:28.861Z,5.35
2018-02-03T22:40:30.446Z,5.32
2018-02-03T22:41:27.296Z,5.34
2018-02-03T22:42:30.355Z,5.32
2018-02-03T22:43:25.982Z,5.32
2018-02-03T22:44:25.855Z,5.31
2018-02-03T22:45:27.172Z,5.3
2018-02-03T22:46:25.996Z,5.32
2018-02-03T22:47:26.696Z,5.3
2018-02-03T22:48:26.965Z,5.29
2018-02-03T22:49:26.414Z,5.34
2018-02-03T22:50:26.026Z,5.33
2018-02-03T22:51:25.876Z,5.33
2018-02-03T22:52:26.763Z,5.34
2018-02-03T22:53:26.764Z,5.34
2018-02-03T22:54:26.155Z,5.35
2018-02-03T22:55:26.613Z,5.36
2018-02-03T22:56:30.558Z,5.35
2018-02-03T22:57:25.661Z,5.34
2018-02-03T22:58:25.569Z,5.36
2018-02-03T22:59:26.850Z,5.36
2018-02-03T23:00:25.742Z,5.36
2018-02-03T23:01:26.352Z,5.36
2018-02-03T23:02:25.915Z,5.36
2018-02-03T23:03:25.690Z,5.33
2018-02-03T23:04:25.725Z,5.35
2018-02-03T23:05:26.560Z,5.36
2018-02-03T23:06:25.903Z,5.36
2018-02-03T23:07:25.688Z,5.35
2018-02-03T23:08:25.778Z,5.34
2018-02-03T23:09:25.523Z,5.34
2018-02-03T23:10:25.525Z,5.34
2018-02-03T23:11:25.548Z,5.33
2018-02-03T23:12:25.556Z,5.33
2018-02-03T23:13:25.619Z,5.32
2018-02-03T23:14:25.960Z,5.31
2018-02-03T23:15:25.606Z,5.31
2018-02-03T23:16:25.592Z,5.29
2018-02-03T23:17:25.543Z,5.31
2018-02-03T23:18:25.730Z,5.3
2018-02-03T23:19:25.648Z,5.3
2018-02-03T23:20:25.614Z,5.3
2018-02-03T23:21:25.697Z,5.3
2018-02-03T23:22:25.580Z,5.29
2018-02-03T23:23:25.687Z,5.3
2018-02-03T23:24:25.486Z,5.29
2018-02-03T23:25:25.624Z,5.3
2018-02-03T23:26:25.592Z,5.29
2018-02-03T23:27:25.752Z,5.29
2018-02-03T23:28:25.852Z,5.29
2018-02-03T23:29:26.011Z,5.3
2018-02-03T23:30:25.743Z,5.3
2018-02-03T23:31:25.887Z,5.3
2018-02-03T23:32:25.752Z,5.3
2018-02-03T23:33:25.731Z,5.3
2018-02-03T23:34:25.738Z,5.3
2018-02-03T23:35:25.846Z,5.29
2018-02-03T23:36:25.752Z,5.28
2018-02-03T23:37:25.886Z,5.27
2018-02-03T23:38:25.739Z,5.28
2018-02-03T23:39:25.925Z,5.27
2018-02-03T23:40:25.800Z,5.27
2018-02-03T23:41:26.059Z,5.27
2018-02-03T23:42:25.787Z,5.26
2018-02-03T23:43:25.816Z,5.25
2018-02-03T23:44:25.879Z,5.24
2018-02-03T23:45:25.736Z,5.26
2018-02-03T23:46:25.741Z,5.24
2018-02-03T23:47:25.852Z,5.24
2018-02-03T23:48:25.955Z,5.24
2018-02-03T23:49:25.725Z,5.23
2018-02-03T23:50:25.900Z,5.23
2018-02-03T23:51:25.754Z,5.22
2018-02-03T23:52:25.730Z,5.23
2018-02-03T23:53:25.769Z,5.23
2018-02-03T23:54:25.798Z,5.22
2018-02-03T23:55:25.744Z,5.24
2018-02-03T23:56:25.817Z,5.23
2018-02-03T23:57:25.758Z,5.23
2018-02-03T23:58:25.692Z,5.24
2018-02-03T23:59:25.623Z,5.23
